Time;durP1;ratioP1;P1;durP2;ratioP2;P2;SDS_P1;SDS_P2;PMS_P1;PMS_P2;Temp;Humidity;BMP_temperature;BMP_pressure;BME280_temperature;BME280_humidity;BME280_pressure;Samples;Min_cycle;Max_cycle;Signal;HPM_P1;HPM_P2
2021/03/13 00:02:23;;;;;;;34.13;21.60;;;;;;;;;;5032879;28;20187;-87
2021/03/13 00:04:48;;;;;;;33.63;22.00;;;;;;;;;;5033636;28;20208;-88
2021/03/13 00:07:14;;;;;;;34.63;21.50;;;;;;;;;;5033320;28;20231;-88
2021/03/13 00:09:40;;;;;;;42.20;22.37;;;;;;;;;;5033374;28;20256;-88
2021/03/13 00:12:09;;;;;;;35.67;20.63;;;;;;;;;;5033447;28;20656;-89
2021/03/13 00:14:35;;;;;;;35.53;19.80;;;;;;;;;;5014652;28;20207;-88
2021/03/13 00:17:00;;;;;;;32.80;18.90;;;;;;;;;;5015698;28;20238;-89
2021/03/13 00:19:25;;;;;;;32.13;18.80;;;;;;;;;;5032875;28;20238;-88
2021/03/13 00:21:51;;;;;;;33.17;19.13;;;;;;;;;;5033084;28;20169;-88
2021/03/13 00:24:16;;;;;;;31.20;18.93;;;;;;;;;;5032963;28;20169;-88
2021/03/13 00:26:42;;;;;;;32.20;19.97;;;;;;;;;;5033206;28;20172;-88
2021/03/13 00:29:07;;;;;;;34.17;20.07;;;;;;;;;;5016401;28;20176;-89
2021/03/13 00:31:33;;;;;;;37.23;21.63;;;;;;;;;;5018637;28;20512;-89
2021/03/13 00:33:58;;;;;;;32.93;20.20;;;;;;;;;;5019230;28;20183;-90
2021/03/13 00:36:23;;;;;;;35.10;21.57;;;;;;;;;;5018675;28;20201;-89
2021/03/13 00:38:49;;;;;;;42.33;21.40;;;;;;;;;;5018616;28;20176;-89
2021/03/13 00:41:14;;;;;;;37.07;21.90;;;;;;;;;;5018272;28;20203;-89
2021/03/13 00:43:39;;;;;;;36.93;21.97;;;;;;;;;;5035893;28;20598;-89
2021/03/13 00:46:05;;;;;;;37.93;21.57;;;;;;;;;;5018570;28;20638;-89
2021/03/13 00:48:30;;;;;;;38.13;22.93;;;;;;;;;;5035846;28;20547;-89
2021/03/13 00:50:55;;;;;;;40.17;23.37;;;;;;;;;;5020033;28;20615;-88
2021/03/13 00:53:21;;;;;;;39.93;23.07;;;;;;;;;;5056733;28;20502;-89
2021/03/13 00:55:46;;;;;;;39.20;23.10;;;;;;;;;;5056006;28;20204;-89
2021/03/13 00:58:11;;;;;;;41.20;23.37;;;;;;;;;;5055807;28;20267;-89
2021/03/13 01:00:37;;;;;;;52.43;26.07;;;;;;;;;;5056246;28;20174;-89
2021/03/13 01:03:05;;;;;;;52.00;27.20;;;;;;;;;;5056247;28;20520;-89
2021/03/13 01:05:30;;;;;;;43.77;24.77;;;;;;;;;;5037859;28;20172;-88
2021/03/13 01:07:56;;;;;;;48.17;25.20;;;;;;;;;;5056160;28;20229;-89
2021/03/13 01:10:24;;;;;;;46.77;25.13;;;;;;;;;;5056279;28;20172;-89
2021/03/13 01:12:49;;;;;;;42.93;24.60;;;;;;;;;;5055756;28;20164;-89
2021/03/13 01:15:16;;;;;;;43.00;24.83;;;;;;;;;;5056259;28;20217;-89
2021/03/13 01:17:41;;;;;;;46.00;26.03;;;;;;;;;;5037922;28;20550;-88
2021/03/13 01:20:08;;;;;;;48.73;27.50;;;;;;;;;;5055842;28;20164;-88
2021/03/13 01:22:33;;;;;;;51.33;30.40;;;;;;;;;;5055536;28;20167;-89
2021/03/13 01:24:59;;;;;;;55.70;30.63;;;;;;;;;;5038609;28;20171;-89
2021/03/13 01:27:24;;;;;;;64.63;34.87;;;;;;;;;;5055462;28;20172;-89
2021/03/13 01:29:49;;;;;;;67.33;35.13;;;;;;;;;;5055368;28;20592;-88
2021/03/13 01:32:15;;;;;;;58.87;33.67;;;;;;;;;;5055648;28;20172;-89
2021/03/13 01:34:40;;;;;;;60.23;33.10;;;;;;;;;;5037937;28;20188;-89
2021/03/13 01:37:05;;;;;;;61.27;32.10;;;;;;;;;;5055636;28;20192;-89
2021/03/13 01:39:31;;;;;;;50.90;30.70;;;;;;;;;;5055470;28;20522;-89
2021/03/13 01:41:56;;;;;;;55.60;31.03;;;;;;;;;;5055382;28;20168;-89
2021/03/13 01:44:21;;;;;;;55.60;31.53;;;;;;;;;;5055240;28;20547;-89
2021/03/13 01:46:47;;;;;;;62.27;32.80;;;;;;;;;;5054999;28;20196;-88
2021/03/13 01:49:27;;;;;;;64.73;33.87;;;;;;;;;;5055563;28;20176;-88
2021/03/13 01:51:53;;;;;;;68.13;34.43;;;;;;;;;;5055398;28;20227;-88
2021/03/13 01:54:18;;;;;;;67.30;33.17;;;;;;;;;;5055453;28;20175;-88
2021/03/13 01:56:44;;;;;;;64.43;33.53;;;;;;;;;;5054729;28;20233;-88
2021/03/13 01:59:10;;;;;;;59.07;33.27;;;;;;;;;;5055320;28;20176;-88
2021/03/13 02:01:38;;;;;;;60.43;31.07;;;;;;;;;;5054988;28;20168;-88
2021/03/13 02:04:03;;;;;;;58.00;31.33;;;;;;;;;;5055007;28;20168;-88
2021/03/13 02:06:29;;;;;;;52.13;28.97;;;;;;;;;;5054283;28;20262;-88
2021/03/13 02:08:54;;;;;;;50.83;28.03;;;;;;;;;;5054942;28;20225;-88
2021/03/13 02:11:27;;;;;;;51.60;28.93;;;;;;;;;;5054653;28;20168;-88
2021/03/13 02:13:52;;;;;;;48.83;27.87;;;;;;;;;;5054939;28;20171;-88
2021/03/13 02:16:36;;;;;;;50.53;27.73;;;;;;;;;;5055073;28;20188;-90
2021/03/13 02:19:21;;;;;;;49.53;26.87;;;;;;;;;;5055310;28;20174;-87
2021/03/13 02:21:56;;;;;;;50.90;28.00;;;;;;;;;;5054556;28;20164;-88
2021/03/13 02:24:27;;;;;;;54.53;28.83;;;;;;;;;;5055224;28;20155;-87
2021/03/13 02:26:58;;;;;;;49.87;27.93;;;;;;;;;;5054314;28;20508;-88
2021/03/13 02:29:26;;;;;;;55.33;29.17;;;;;;;;;;5054551;28;20490;-88
2021/03/13 02:31:55;;;;;;;51.20;28.03;;;;;;;;;;5055134;28;20558;-89
2021/03/13 02:34:24;;;;;;;47.70;27.60;;;;;;;;;;5036653;28;20589;-89
2021/03/13 02:36:50;;;;;;;51.30;28.50;;;;;;;;;;5054333;28;20192;-88
2021/03/13 02:39:18;;;;;;;53.23;28.27;;;;;;;;;;5054623;28;20171;-88
2021/03/13 02:41:46;;;;;;;46.50;27.07;;;;;;;;;;5036099;28;20180;-88
2021/03/13 02:44:13;;;;;;;52.67;28.87;;;;;;;;;;5053839;28;20677;-88
2021/03/13 02:46:41;;;;;;;52.37;27.10;;;;;;;;;;5054232;28;20282;-88
2021/03/13 02:49:07;;;;;;;51.73;27.50;;;;;;;;;;5036280;28;20171;-88
2021/03/13 02:51:33;;;;;;;48.90;26.57;;;;;;;;;;5053721;28;20228;-88
2021/03/13 02:53:59;;;;;;;53.13;26.73;;;;;;;;;;5053338;28;20179;-88
2021/03/13 02:56:25;;;;;;;47.80;26.40;;;;;;;;;;5053703;28;20203;-88
2021/03/13 02:58:51;;;;;;;48.60;26.13;;;;;;;;;;5054376;28;20229;-89
2021/03/13 03:01:18;;;;;;;47.27;26.00;;;;;;;;;;5054333;28;20562;-88
2021/03/13 03:03:44;;;;;;;50.17;26.37;;;;;;;;;;5053684;28;20618;-88
2021/03/13 03:06:09;;;;;;;44.37;25.73;;;;;;;;;;5053684;28;20186;-88
2021/03/13 03:08:35;;;;;;;50.10;27.17;;;;;;;;;;5054190;28;20180;-88
2021/03/13 03:11:01;;;;;;;46.63;27.83;;;;;;;;;;5054523;28;20195;-89
2021/03/13 03:13:27;;;;;;;48.43;27.40;;;;;;;;;;5054687;28;20214;-89
2021/03/13 03:15:54;;;;;;;44.97;26.90;;;;;;;;;;5053798;28;20191;-90
2021/03/13 03:18:19;;;;;;;44.17;25.87;;;;;;;;;;5053817;28;20206;-88
2021/03/13 03:20:47;;;;;;;45.50;26.07;;;;;;;;;;5053724;28;20178;-89
2021/03/13 03:23:12;;;;;;;47.60;26.43;;;;;;;;;;5053803;28;20180;-89
2021/03/13 03:25:38;;;;;;;44.20;25.10;;;;;;;;;;5053746;28;20646;-89
2021/03/13 03:28:03;;;;;;;38.87;23.50;;;;;;;;;;5053617;28;20225;-88
2021/03/13 03:30:30;;;;;;;40.00;23.33;;;;;;;;;;5054355;28;20217;-88
2021/03/13 03:32:56;;;;;;;39.03;23.27;;;;;;;;;;5053875;28;20183;-88
2021/03/13 03:35:22;;;;;;;38.23;22.40;;;;;;;;;;5053664;28;20622;-88
2021/03/13 03:37:48;;;;;;;38.13;21.87;;;;;;;;;;5053799;28;20206;-88
2021/03/13 03:40:17;;;;;;;36.87;21.43;;;;;;;;;;5053852;28;20172;-88
2021/03/13 03:42:47;;;;;;;32.93;21.10;;;;;;;;;;5053533;28;20171;-88
2021/03/13 03:45:14;;;;;;;39.40;22.03;;;;;;;;;;5053855;28;20199;-88
2021/03/13 03:47:39;;;;;;;33.83;20.73;;;;;;;;;;5053363;28;20180;-88
2021/03/13 03:50:05;;;;;;;37.77;21.73;;;;;;;;;;5054026;28;20172;-87
2021/03/13 03:52:31;;;;;;;37.00;21.57;;;;;;;;;;5053733;28;20657;-88
2021/03/13 03:54:58;;;;;;;37.73;21.27;;;;;;;;;;5053733;28;20182;-88
2021/03/13 03:57:25;;;;;;;35.30;21.40;;;;;;;;;;5053370;28;20204;-88
2021/03/13 03:59:50;;;;;;;32.80;20.23;;;;;;;;;;5054005;28;20180;-88
2021/03/13 04:02:16;;;;;;;33.33;19.73;;;;;;;;;;5053197;28;20501;-88
2021/03/13 04:04:42;;;;;;;35.50;21.53;;;;;;;;;;5055714;28;20237;-88
2021/03/13 04:07:08;;;;;;;34.60;21.47;;;;;;;;;;5056969;28;20251;-88
2021/03/13 04:09:33;;;;;;;35.73;20.37;;;;;;;;;;5057193;28;20167;-88
2021/03/13 04:12:01;;;;;;;44.27;21.93;;;;;;;;;;5057496;28;20589;-88
2021/03/13 04:14:26;;;;;;;34.20;20.53;;;;;;;;;;5056760;28;20164;-88
2021/03/13 04:16:52;;;;;;;39.20;21.60;;;;;;;;;;5056692;28;20191;-88
2021/03/13 04:19:17;;;;;;;34.53;22.10;;;;;;;;;;5056794;28;20234;-88
2021/03/13 04:21:43;;;;;;;35.63;21.73;;;;;;;;;;5057041;28;20172;-88
2021/03/13 04:24:12;;;;;;;37.03;21.20;;;;;;;;;;5056697;28;20168;-89
2021/03/13 04:26:38;;;;;;;37.77;21.63;;;;;;;;;;5057748;28;20226;-91
2021/03/13 04:29:03;;;;;;;35.77;22.30;;;;;;;;;;5056859;28;20171;-91
2021/03/13 04:31:30;;;;;;;37.70;22.37;;;;;;;;;;5057067;28;20262;-92
2021/03/13 04:33:56;;;;;;;40.20;21.83;;;;;;;;;;5038897;28;20167;-92
2021/03/13 04:36:23;;;;;;;43.23;24.13;;;;;;;;;;5039288;28;20199;-89
2021/03/13 04:38:48;;;;;;;36.90;22.80;;;;;;;;;;5056342;28;20183;-90
2021/03/13 04:41:13;;;;;;;40.87;24.57;;;;;;;;;;5057272;28;20168;-89
2021/03/13 04:43:40;;;;;;;37.33;22.23;;;;;;;;;;5056161;28;20192;-89
2021/03/13 04:46:05;;;;;;;34.70;22.90;;;;;;;;;;5056504;28;20176;-89
2021/03/13 04:48:32;;;;;;;34.47;21.77;;;;;;;;;;5056486;28;20230;-89
2021/03/13 04:50:58;;;;;;;36.83;22.43;;;;;;;;;;5038406;28;20267;-89
2021/03/13 04:53:24;;;;;;;38.07;23.43;;;;;;;;;;5057121;28;20171;-89
2021/03/13 04:55:49;;;;;;;38.13;24.30;;;;;;;;;;5056409;28;20168;-90
2021/03/13 04:58:14;;;;;;;39.87;24.53;;;;;;;;;;5057002;28;20222;-89
2021/03/13 05:00:40;;;;;;;41.43;26.23;;;;;;;;;;5056350;28;20191;-89
2021/03/13 05:03:05;;;;;;;53.63;30.67;;;;;;;;;;5038448;28;20183;-89
2021/03/13 05:05:33;;;;;;;57.47;32.67;;;;;;;;;;5055867;28;20210;-89
2021/03/13 05:07:58;;;;;;;63.80;33.73;;;;;;;;;;5038235;28;20213;-89
2021/03/13 05:10:24;;;;;;;48.90;28.97;;;;;;;;;;5056583;28;20172;-89
2021/03/13 05:12:51;;;;;;;45.63;28.50;;;;;;;;;;5055749;28;20522;-89
2021/03/13 05:15:16;;;;;;;41.67;27.00;;;;;;;;;;5055126;28;20168;-89
2021/03/13 05:17:42;;;;;;;48.23;27.10;;;;;;;;;;5055464;28;20196;-89
2021/03/13 05:20:07;;;;;;;47.47;27.13;;;;;;;;;;5055866;28;20178;-89
2021/03/13 05:22:33;;;;;;;48.13;27.40;;;;;;;;;;5056398;28;20174;-89
2021/03/13 05:24:58;;;;;;;48.13;27.10;;;;;;;;;;5056091;28;20247;-90
2021/03/13 05:27:23;;;;;;;44.43;25.17;;;;;;;;;;5037846;28;20183;-88
2021/03/13 05:29:48;;;;;;;34.17;20.77;;;;;;;;;;5055686;28;20172;-88
2021/03/13 05:32:14;;;;;;;44.80;24.40;;;;;;;;;;5055988;28;20221;-89
2021/03/13 05:34:39;;;;;;;46.17;24.67;;;;;;;;;;5056018;28;20175;-89
2021/03/13 05:37:05;;;;;;;44.57;25.30;;;;;;;;;;5055798;28;20202;-90
2021/03/13 05:39:30;;;;;;;55.47;28.03;;;;;;;;;;5055251;28;20190;-89
2021/03/13 05:41:55;;;;;;;47.10;27.17;;;;;;;;;;5038114;28;20176;-89
2021/03/13 05:44:21;;;;;;;44.33;26.80;;;;;;;;;;5055309;28;20256;-89
2021/03/13 05:46:46;;;;;;;38.37;23.33;;;;;;;;;;5055109;28;20267;-90
2021/03/13 05:49:12;;;;;;;43.63;22.67;;;;;;;;;;5039734;28;20171;-89
2021/03/13 05:51:44;;;;;;;27.37;16.50;;;;;;;;;;5061010;28;20362;-90
2021/03/13 05:54:11;;;;;;;24.23;14.20;;;;;;;;;;5060590;28;20200;-89
2021/03/13 05:56:38;;;;;;;24.53;14.83;;;;;;;;;;5054858;28;20196;-88
2021/03/13 05:59:05;;;;;;;20.63;13.53;;;;;;;;;;5055161;28;20179;-89
2021/03/13 06:01:30;;;;;;;22.60;13.60;;;;;;;;;;5054888;28;20191;-89
2021/03/13 06:03:56;;;;;;;21.70;12.97;;;;;;;;;;5055143;28;20548;-89
2021/03/13 06:06:22;;;;;;;19.50;12.60;;;;;;;;;;5054857;28;20258;-89
2021/03/13 06:08:48;;;;;;;23.87;12.67;;;;;;;;;;5055268;28;20221;-89
2021/03/13 06:11:14;;;;;;;18.33;11.47;;;;;;;;;;5054860;28;20263;-89
2021/03/13 06:13:39;;;;;;;16.67;11.17;;;;;;;;;;5054811;28;20203;-88
2021/03/13 06:16:05;;;;;;;16.93;11.43;;;;;;;;;;5054628;28;20192;-88
2021/03/13 06:18:48;;;;;;;18.77;11.10;;;;;;;;;;5055297;28;20182;-88
2021/03/13 06:21:22;;;;;;;16.70;11.00;;;;;;;;;;5054943;28;20194;-89
2021/03/13 06:23:48;;;;;;;14.57;10.47;;;;;;;;;;5055565;28;20221;-90
2021/03/13 06:26:13;;;;;;;15.53;10.70;;;;;;;;;;5055037;28;20615;-90
2021/03/13 06:28:39;;;;;;;14.97;10.67;;;;;;;;;;5036590;28;20183;-90
2021/03/13 06:31:06;;;;;;;16.30;10.53;;;;;;;;;;5054528;28;20171;-90
2021/03/13 06:33:32;;;;;;;16.50;10.67;;;;;;;;;;5054736;28;20192;-90
2021/03/13 06:36:00;;;;;;;16.30;10.13;;;;;;;;;;5054374;28;20234;-90
2021/03/13 06:38:26;;;;;;;14.73;9.27;;;;;;;;;;5054399;28;20313;-90
2021/03/13 06:40:53;;;;;;;15.50;8.80;;;;;;;;;;5054208;28;20229;-90
2021/03/13 06:43:29;;;;;;;13.33;9.83;;;;;;;;;;5054372;28;20179;-90
2021/03/13 06:46:05;;;;;;;13.40;9.33;;;;;;;;;;5054319;28;20179;-90
2021/03/13 06:48:35;;;;;;;14.93;9.80;;;;;;;;;;5053912;28;20221;-90
2021/03/13 06:51:12;;;;;;;15.90;9.97;;;;;;;;;;5054126;28;20500;-90
2021/03/13 06:53:38;;;;;;;18.70;11.53;;;;;;;;;;5054475;28;20542;-90
2021/03/13 06:56:08;;;;;;;14.57;10.73;;;;;;;;;;5053738;28;20226;-90
2021/03/13 06:58:33;;;;;;;13.60;9.53;;;;;;;;;;5053933;28;20180;-90
2021/03/13 07:01:03;;;;;;;13.10;8.57;;;;;;;;;;5054406;28;20171;-90
2021/03/13 07:03:28;;;;;;;14.70;8.70;;;;;;;;;;5036363;28;20539;-89
2021/03/13 07:05:53;;;;;;;13.63;8.53;;;;;;;;;;5053956;28;20172;-89
2021/03/13 07:08:26;;;;;;;16.50;9.60;;;;;;;;;;5053930;28;20176;-89
2021/03/13 07:10:52;;;;;;;14.93;9.67;;;;;;;;;;5035972;28;20266;-89
2021/03/13 07:13:31;;;;;;;12.17;8.27;;;;;;;;;;5036624;28;20191;-89
2021/03/13 07:16:16;;;;;;;12.30;8.10;;;;;;;;;;5054616;28;20176;-89
2021/03/13 07:18:41;;;;;;;12.67;8.33;;;;;;;;;;5054160;28;20182;-90
2021/03/13 07:21:07;;;;;;;18.03;10.50;;;;;;;;;;5054111;28;20168;-89
2021/03/13 07:23:33;;;;;;;24.33;13.03;;;;;;;;;;5053789;28;20603;-89
2021/03/13 07:25:58;;;;;;;21.00;12.37;;;;;;;;;;5053695;28;20171;-89
2021/03/13 07:28:23;;;;;;;14.80;9.17;;;;;;;;;;5053968;28;20163;-90
2021/03/13 07:30:49;;;;;;;13.17;9.53;;;;;;;;;;5035821;28;20175;-89
2021/03/13 07:33:16;;;;;;;14.80;9.13;;;;;;;;;;5053644;28;20168;-90
2021/03/13 07:35:46;;;;;;;16.10;10.57;;;;;;;;;;5053963;28;20182;-89
2021/03/13 07:38:12;;;;;;;13.37;9.77;;;;;;;;;;5035898;28;20175;-89
2021/03/13 07:40:45;;;;;;;12.83;8.90;;;;;;;;;;5057340;28;20213;-89
2021/03/13 07:43:12;;;;;;;18.03;10.43;;;;;;;;;;5058233;28;20164;-90
2021/03/13 07:45:38;;;;;;;15.33;9.67;;;;;;;;;;5057714;28;20187;-89
2021/03/13 07:48:04;;;;;;;15.30;9.40;;;;;;;;;;5057844;28;20513;-89
2021/03/13 07:50:29;;;;;;;12.43;8.80;;;;;;;;;;5057235;28;20174;-89
2021/03/13 07:52:55;;;;;;;13.57;8.80;;;;;;;;;;5057474;28;20231;-89
2021/03/13 07:55:21;;;;;;;15.77;9.20;;;;;;;;;;5057714;28;20175;-90
2021/03/13 07:57:48;;;;;;;14.20;8.90;;;;;;;;;;5057170;28;20199;-89
2021/03/13 08:00:14;;;;;;;12.70;8.10;;;;;;;;;;5057154;28;20186;-90
2021/03/13 08:02:40;;;;;;;13.67;8.50;;;;;;;;;;5057435;28;20176;-90
2021/03/13 08:05:07;;;;;;;17.03;9.43;;;;;;;;;;5039631;28;20521;-87
2021/03/13 08:07:52;;;;;;;15.87;11.20;;;;;;;;;;5057788;28;20262;-87
2021/03/13 08:10:35;;;;;;;16.27;11.10;;;;;;;;;;5057520;28;20172;-87
2021/03/13 08:13:01;;;;;;;16.33;10.80;;;;;;;;;;5037343;28;20182;-87
2021/03/13 08:15:29;;;;;;;15.90;9.80;;;;;;;;;;5037249;28;20180;-87
2021/03/13 08:17:54;;;;;;;16.63;10.00;;;;;;;;;;5037038;28;20200;-89
2021/03/13 08:20:27;;;;;;;13.87;9.37;;;;;;;;;;5036804;28;20179;-88
2021/03/13 08:23:05;;;;;;;14.77;9.50;;;;;;;;;;5037104;28;20604;-88
2021/03/13 08:25:30;;;;;;;13.43;10.13;;;;;;;;;;5037014;28;20176;-88
2021/03/13 08:27:55;;;;;;;14.03;9.73;;;;;;;;;;5036661;28;20183;-88
2021/03/13 08:30:25;;;;;;;13.20;9.00;;;;;;;;;;5019426;28;20175;-88
2021/03/13 08:33:06;;;;;;;14.07;9.30;;;;;;;;;;5036570;28;20235;-88
2021/03/13 08:35:33;;;;;;;14.83;9.10;;;;;;;;;;5037055;28;20168;-88
2021/03/13 08:37:58;;;;;;;12.37;8.87;;;;;;;;;;5019841;28;20222;-87
2021/03/13 08:40:24;;;;;;;14.13;9.20;;;;;;;;;;5035832;28;20280;-86
2021/03/13 08:42:50;;;;;;;11.97;9.60;;;;;;;;;;5035010;28;20626;-87
2021/03/13 08:45:17;;;;;;;15.57;9.47;;;;;;;;;;5034491;28;20283;-87
2021/03/13 08:47:48;;;;;;;12.83;9.20;;;;;;;;;;5034863;28;20289;-86
2021/03/13 08:50:34;;;;;;;14.53;9.07;;;;;;;;;;5033581;28;20575;-86
2021/03/13 08:53:19;;;;;;;17.47;10.83;;;;;;;;;;5034122;28;20248;-86
2021/03/13 08:55:44;;;;;;;17.57;11.80;;;;;;;;;;5034635;28;20196;-86
2021/03/13 08:58:29;;;;;;;15.40;10.57;;;;;;;;;;5036844;28;20685;-87
2021/03/13 09:00:55;;;;;;;15.23;10.40;;;;;;;;;;5036537;28;20292;-87
2021/03/13 09:03:20;;;;;;;18.30;11.80;;;;;;;;;;5040880;28;20263;-88
2021/03/13 09:05:45;;;;;;;17.17;10.27;;;;;;;;;;5042403;28;20188;-89
2021/03/13 09:08:18;;;;;;;14.57;10.10;;;;;;;;;;5036167;28;20169;-86
2021/03/13 09:10:43;;;;;;;16.70;10.57;;;;;;;;;;5054765;28;20256;-87
2021/03/13 09:13:18;;;;;;;16.00;11.20;;;;;;;;;;5055688;28;20318;-86
2021/03/13 09:15:43;;;;;;;17.50;12.27;;;;;;;;;;5056534;28;20173;-86
2021/03/13 09:18:13;;;;;;;19.90;14.13;;;;;;;;;;5056126;28;20172;-86
2021/03/13 09:20:40;;;;;;;14.70;10.00;;;;;;;;;;5055839;28;20191;-87
2021/03/13 09:23:08;;;;;;;14.57;9.73;;;;;;;;;;5055529;28;20175;-87
2021/03/13 09:25:34;;;;;;;12.73;8.77;;;;;;;;;;5056584;28;20176;-88
2021/03/13 09:27:59;;;;;;;12.10;8.97;;;;;;;;;;5055409;28;20669;-87
2021/03/13 09:30:25;;;;;;;15.50;10.90;;;;;;;;;;5055752;28;20176;-87
2021/03/13 09:32:51;;;;;;;15.20;9.97;;;;;;;;;;5055365;28;20199;-87
2021/03/13 09:35:18;;;;;;;11.73;8.07;;;;;;;;;;5054550;28;20172;-85
2021/03/13 09:37:43;;;;;;;14.63;8.97;;;;;;;;;;5054054;28;20218;-87
2021/03/13 09:40:11;;;;;;;11.70;8.00;;;;;;;;;;5036474;28;20615;-87
2021/03/13 09:42:37;;;;;;;11.27;7.10;;;;;;;;;;5055150;28;20222;-86
2021/03/13 09:45:04;;;;;;;10.60;6.73;;;;;;;;;;5054059;28;20655;-86
2021/03/13 09:47:33;;;;;;;8.37;6.57;;;;;;;;;;5055152;28;20290;-86
2021/03/13 09:50:00;;;;;;;11.87;7.43;;;;;;;;;;5055001;28;20286;-85
2021/03/13 09:52:30;;;;;;;9.20;6.60;;;;;;;;;;5052921;28;20310;-85
2021/03/13 09:54:59;;;;;;;8.03;6.20;;;;;;;;;;5055456;28;20176;-85
2021/03/13 09:57:25;;;;;;;10.27;7.00;;;;;;;;;;5054528;28;20592;-86
2021/03/13 09:59:50;;;;;;;10.13;7.30;;;;;;;;;;5036920;28;20187;-85
2021/03/13 10:02:15;;;;;;;12.80;8.07;;;;;;;;;;5052530;28;20531;-85
2021/03/13 10:04:41;;;;;;;8.63;6.63;;;;;;;;;;5052822;28;20609;-87
2021/03/13 10:07:06;;;;;;;9.73;6.63;;;;;;;;;;5052957;28;20870;-85
2021/03/13 10:09:32;;;;;;;7.03;6.30;;;;;;;;;;5051996;28;20174;-86
2021/03/13 10:11:58;;;;;;;9.93;6.17;;;;;;;;;;5045687;28;20268;-84
2021/03/13 10:14:24;;;;;;;7.10;6.10;;;;;;;;;;5015223;28;20185;-84
2021/03/13 10:17:02;;;;;;;8.50;6.70;;;;;;;;;;5042435;28;20202;-85
2021/03/13 10:19:35;;;;;;;9.67;5.50;;;;;;;;;;5035060;28;20214;-86
2021/03/13 10:22:19;;;;;;;8.93;6.83;;;;;;;;;;5034717;28;20235;-86
2021/03/13 10:24:48;;;;;;;9.37;6.37;;;;;;;;;;5033157;28;20176;-85
2021/03/13 10:27:20;;;;;;;8.20;5.73;;;;;;;;;;5033095;28;20172;-87
2021/03/13 10:29:52;;;;;;;8.00;5.17;;;;;;;;;;5041952;28;20207;-86
2021/03/13 10:32:22;;;;;;;7.33;4.90;;;;;;;;;;5013344;28;20215;-87
2021/03/13 10:34:47;;;;;;;9.60;5.70;;;;;;;;;;5024991;28;20210;-86
2021/03/13 10:37:33;;;;;;;7.60;5.40;;;;;;;;;;5052473;28;20238;-87
2021/03/13 10:39:58;;;;;;;8.40;5.40;;;;;;;;;;5051139;28;20266;-85
2021/03/13 10:42:23;;;;;;;9.43;6.53;;;;;;;;;;5051265;28;20267;-86
2021/03/13 10:44:49;;;;;;;8.17;6.23;;;;;;;;;;5052462;28;20215;-86
2021/03/13 10:47:29;;;;;;;10.70;6.73;;;;;;;;;;5037577;28;20263;-88
2021/03/13 10:49:58;;;;;;;9.00;5.80;;;;;;;;;;5016242;28;20191;-88
2021/03/13 10:52:27;;;;;;;8.17;5.50;;;;;;;;;;5034244;28;20564;-87
2021/03/13 10:54:52;;;;;;;8.97;6.03;;;;;;;;;;5034216;28;20196;-87
2021/03/13 10:57:18;;;;;;;9.90;6.23;;;;;;;;;;5034144;28;20231;-87
2021/03/13 10:59:43;;;;;;;8.27;5.03;;;;;;;;;;5033557;28;20214;-86
2021/03/13 11:02:09;;;;;;;6.93;5.20;;;;;;;;;;5033323;28;20179;-86
2021/03/13 11:04:35;;;;;;;6.20;4.70;;;;;;;;;;5033142;28;20172;-86
2021/03/13 11:07:00;;;;;;;11.10;5.23;;;;;;;;;;5033942;28;20173;-86
2021/03/13 11:09:25;;;;;;;5.83;4.37;;;;;;;;;;5032042;28;20184;-86
2021/03/13 11:11:51;;;;;;;7.20;4.50;;;;;;;;;;5005029;28;20320;-85
2021/03/13 11:14:16;;;;;;;9.17;4.70;;;;;;;;;;5013211;28;20165;-86
2021/03/13 11:16:43;;;;;;;7.10;4.70;;;;;;;;;;5013536;28;20189;-85
2021/03/13 11:19:09;;;;;;;9.73;4.77;;;;;;;;;;5027808;28;20218;-85
2021/03/13 11:21:35;;;;;;;5.93;5.00;;;;;;;;;;5038173;28;20223;-85
2021/03/13 11:24:01;;;;;;;9.53;5.63;;;;;;;;;;5039125;28;20168;-86
2021/03/13 11:29:01;;;;;;;8.20;5.90;;;;;;;;;;5719517;23;20531;-85
2021/03/13 11:31:26;;;;;;;9.37;6.20;;;;;;;;;;5006832;28;20274;-85
2021/03/13 11:33:51;;;;;;;7.33;5.63;;;;;;;;;;5010325;28;20220;-84
2021/03/13 11:36:17;;;;;;;9.03;6.63;;;;;;;;;;5014400;28;20554;-85
2021/03/13 11:38:43;;;;;;;8.97;5.77;;;;;;;;;;5014194;28;20188;-86
2021/03/13 11:41:10;;;;;;;6.53;5.00;;;;;;;;;;5011563;28;20185;-85
2021/03/13 11:43:38;;;;;;;8.27;5.23;;;;;;;;;;4995990;28;20192;-86
2021/03/13 11:46:03;;;;;;;5.80;4.53;;;;;;;;;;5012552;28;20685;-85
2021/03/13 11:48:29;;;;;;;6.23;4.77;;;;;;;;;;5013322;28;20181;-84
2021/03/13 11:50:55;;;;;;;6.53;4.40;;;;;;;;;;5019654;28;20173;-85
2021/03/13 11:53:20;;;;;;;5.20;4.70;;;;;;;;;;5020302;28;20203;-84
2021/03/13 11:55:46;;;;;;;4.97;4.00;;;;;;;;;;4998414;28;20189;-84
2021/03/13 11:58:11;;;;;;;5.63;4.63;;;;;;;;;;5013426;28;20224;-87
2021/03/13 12:00:37;;;;;;;6.13;4.70;;;;;;;;;;4996700;28;20185;-85
2021/03/13 12:03:03;;;;;;;6.17;4.40;;;;;;;;;;5013440;28;20169;-85
2021/03/13 12:05:28;;;;;;;7.30;4.67;;;;;;;;;;5013378;28;20165;-85
2021/03/13 12:07:53;;;;;;;5.97;4.73;;;;;;;;;;5013398;28;20173;-86
2021/03/13 12:10:19;;;;;;;6.60;4.47;;;;;;;;;;5013810;28;20209;-86
2021/03/13 12:12:45;;;;;;;5.67;4.30;;;;;;;;;;5013940;28;20181;-86
2021/03/13 12:15:10;;;;;;;4.83;4.17;;;;;;;;;;5012182;28;20591;-84
2021/03/13 12:17:36;;;;;;;7.13;5.00;;;;;;;;;;4993487;28;20284;-84
2021/03/13 12:20:02;;;;;;;6.43;4.90;;;;;;;;;;5010655;28;20284;-82
2021/03/13 12:22:27;;;;;;;6.70;4.73;;;;;;;;;;5012024;28;20284;-83
2021/03/13 12:24:53;;;;;;;6.87;5.10;;;;;;;;;;5012540;28;20276;-83
2021/03/13 12:27:19;;;;;;;8.63;6.03;;;;;;;;;;5014957;28;20177;-85
2021/03/13 12:29:44;;;;;;;5.83;3.67;;;;;;;;;;4984820;28;20284;-85
2021/03/13 12:32:10;;;;;;;6.47;4.60;;;;;;;;;;4995529;28;20194;-84
2021/03/13 12:34:35;;;;;;;8.77;5.27;;;;;;;;;;4995530;28;20174;-84
2021/03/13 12:37:00;;;;;;;5.90;4.77;;;;;;;;;;4990087;28;20202;-83
2021/03/13 12:39:26;;;;;;;7.07;5.23;;;;;;;;;;4985864;28;20656;-85
2021/03/13 12:41:52;;;;;;;5.23;4.60;;;;;;;;;;4999420;28;20192;-85
2021/03/13 12:44:18;;;;;;;7.10;4.90;;;;;;;;;;4984145;28;20174;-85
2021/03/13 12:46:43;;;;;;;5.70;4.40;;;;;;;;;;4984984;28;20181;-85
2021/03/13 12:49:09;;;;;;;4.40;3.53;;;;;;;;;;4984444;28;20260;-85
2021/03/13 12:51:34;;;;;;;6.97;4.87;;;;;;;;;;4988996;28;20178;-86
2021/03/13 12:54:00;;;;;;;5.60;4.13;;;;;;;;;;4994888;28;20321;-86
2021/03/13 12:56:25;;;;;;;6.17;4.40;;;;;;;;;;4986782;28;20214;-84
2021/03/13 12:58:51;;;;;;;6.83;5.37;;;;;;;;;;4984736;28;20194;-85
2021/03/13 13:01:16;;;;;;;5.93;4.20;;;;;;;;;;4990347;28;20173;-85
2021/03/13 13:03:41;;;;;;;8.43;4.93;;;;;;;;;;4990693;28;20190;-84
2021/03/13 13:06:06;;;;;;;5.07;4.40;;;;;;;;;;4989809;28;20652;-84
2021/03/13 13:08:32;;;;;;;5.50;4.30;;;;;;;;;;4989984;28;20301;-84
2021/03/13 13:10:57;;;;;;;6.97;5.03;;;;;;;;;;4971501;28;20181;-84
2021/03/13 13:13:25;;;;;;;5.13;4.53;;;;;;;;;;4988598;28;20577;-85
2021/03/13 13:15:51;;;;;;;6.90;4.23;;;;;;;;;;4992077;28;20177;-84
2021/03/13 13:18:21;;;;;;;7.03;4.97;;;;;;;;;;4990370;28;20185;-84
2021/03/13 13:20:46;;;;;;;7.40;5.13;;;;;;;;;;4989989;28;20273;-85
2021/03/13 13:23:13;;;;;;;6.03;5.07;;;;;;;;;;4986993;28;20265;-86
2021/03/13 13:25:40;;;;;;;6.30;5.30;;;;;;;;;;4988680;28;20273;-84
2021/03/13 13:28:06;;;;;;;6.73;4.87;;;;;;;;;;4989812;28;20269;-85
2021/03/13 13:30:31;;;;;;;9.30;7.70;;;;;;;;;;4967167;28;20328;-86
2021/03/13 13:32:57;;;;;;;9.00;6.30;;;;;;;;;;4988250;28;20222;-85
2021/03/13 13:35:23;;;;;;;5.43;4.53;;;;;;;;;;4983340;28;20189;-86
2021/03/13 13:37:50;;;;;;;6.67;4.80;;;;;;;;;;4980023;28;20213;-85
2021/03/13 13:40:16;;;;;;;6.77;5.37;;;;;;;;;;4993709;28;20185;-86
2021/03/13 13:42:41;;;;;;;7.07;5.30;;;;;;;;;;4976831;28;20186;-84
2021/03/13 13:45:08;;;;;;;7.67;6.03;;;;;;;;;;4994220;28;20394;-85
2021/03/13 13:47:34;;;;;;;7.90;5.40;;;;;;;;;;4993985;28;20535;-85
2021/03/13 13:49:59;;;;;;;17.73;10.40;;;;;;;;;;4993907;28;20173;-85
2021/03/13 13:52:24;;;;;;;7.93;6.17;;;;;;;;;;4994502;28;20173;-86
2021/03/13 13:54:51;;;;;;;6.63;5.53;;;;;;;;;;4995874;28;20265;-85
2021/03/13 13:57:17;;;;;;;6.47;4.93;;;;;;;;;;4996183;28;20670;-85
2021/03/13 13:59:42;;;;;;;9.23;6.50;;;;;;;;;;4996047;28;20262;-85
2021/03/13 14:02:07;;;;;;;8.10;5.13;;;;;;;;;;4996185;28;20174;-86
2021/03/13 14:04:33;;;;;;;10.37;6.20;;;;;;;;;;4992668;28;20572;-86
2021/03/13 14:09:33;;;;;;;7.27;5.60;;;;;;;;;;5303274;23;20249;-86
2021/03/13 14:11:58;;;;;;;8.43;5.40;;;;;;;;;;4972227;28;20201;-85
2021/03/13 14:14:24;;;;;;;5.80;4.83;;;;;;;;;;4974587;28;20174;-87
2021/03/13 14:16:49;;;;;;;8.87;5.17;;;;;;;;;;4976378;28;20221;-88
2021/03/13 14:19:15;;;;;;;5.57;4.50;;;;;;;;;;4959109;28;20187;-87
2021/03/13 14:21:40;;;;;;;8.07;5.10;;;;;;;;;;4975472;28;20540;-88
2021/03/13 14:24:05;;;;;;;11.13;5.40;;;;;;;;;;4956234;28;20181;-86
2021/03/13 14:26:31;;;;;;;7.90;5.60;;;;;;;;;;4958768;28;20185;-90
2021/03/13 14:28:57;;;;;;;7.00;5.13;;;;;;;;;;4975431;28;20269;-89
2021/03/13 14:31:23;;;;;;;7.80;5.20;;;;;;;;;;4974653;28;20182;-88